Flight Track Log - Related Links

Times and Time Zones

All times are in EDT time to prevent confusion due to time zone crossing. See the SWA1881 flight status page for this flight to view local times or setup timezone preferences in your user account.


Time Position Orientation Groundspeed Altitude Reporting Facility
EDT Latitude Longitude Course Direction KTS MPH feet Rate Location/Type
Fri 07:47:09 AM 41.8167 -87.7333 90° East 204 235 4,100  Level Chicago TRACON
Fri 07:48:03 AM 41.8500 -87.6500 62° Northeast 267 307 6,700 3,535 Climbing Chicago TRACON
Fri 07:49:18 AM 41.8653 -87.5150 81° East 305 351 11,700 3,810 Climbing Chicago Center
Fri 07:50:20 AM 41.8544 -87.3956 97° East 337 388 15,400 3,366 Climbing Chicago Center
Fri 07:51:21 AM 41.8211 -87.2794 111° Southeast 366 421 18,600 3,659 Climbing Chicago Center
Fri 07:52:00 AM 41.7500 -86.9220 90° East  Level FlightAware Approximate
Fri 07:52:23 AM 41.8019 -87.0992 98° East 412 474 22,900  Level Chicago Center
Fri 07:53:24 AM 41.7942 -86.9414 94° East 421 484 26,200 3,122 Climbing Chicago Center
Fri 07:54:26 AM 41.7856 -86.7758 94° East 439 505 29,300 2,976 Climbing Chicago Center
Fri 07:55:27 AM 41.7781 -86.6261 94° East 444 511 32,300 1,805 Climbing Chicago Center
Fri 07:56:29 AM 41.7675 -86.4303 94° East 442 509 33,000 339 Climbing Chicago Center
Fri 07:57:31 AM 41.7583 -86.2664 94° East 442 509 33,000  Level Chicago Center
Fri 07:58:32 AM 41.7494 -86.1047 94° East 439 505 33,000  Level Chicago Center
Fri 07:59:34 AM 41.7403 -85.9419 94° East 439 505 33,000  Level Chicago Center
Fri 08:00:35 AM 41.7303 -85.7772 95° East 440 506 33,000  Level Chicago Center
Fri 08:01:37 AM 41.7206 -85.6111 94° East 443 510 33,000  Level Chicago Center
Fri 08:02:38 AM 41.7081 -85.4275 95° East 443 510 33,000  Level Chicago Center
Fri 08:03:40 AM 41.6992 -85.2697 94° East 457 526 33,000  Level Chicago Center
Fri 08:04:42 AM 41.6886 -85.1017 95° East 457 526 33,000  Level Chicago Center
Fri 08:05:43 AM 41.6769 -84.9364 95° East 449 517 33,000  Level Chicago Center
Fri 08:06:28 AM 41.6681 -84.8044 95° East 447 514 33,000  Level Cleveland Center
Fri 08:07:30 AM 41.6603 -84.6386 94° East 447 514 33,000  Level Cleveland Center
Fri 08:08:32 AM 41.6525 -84.4708 93° East 450 518 33,000  Level Cleveland Center
Fri 08:09:34 AM 41.6431 -84.3058 94° East 450 518 33,000  Level Cleveland Center
Fri 08:10:36 AM 41.6050 -84.1194 105° East 446 513 33,000  Level Cleveland Center
Fri 08:11:38 AM 41.5739 -83.9611 105° East 442 509 33,000  Level Cleveland Center
Fri 08:12:40 AM 41.5444 -83.8031 104° East 442 509 33,000  Level Cleveland Center
Fri 08:13:42 AM 41.5128 -83.6436 105° East 444 511 33,000  Level Cleveland Center
Fri 08:14:43 AM 41.4817 -83.4861 105° East 444 511 33,000  Level Cleveland Center
Fri 08:15:45 AM 41.4436 -83.2942 105° East 445 512 33,000  Level Cleveland Center
Fri 08:16:47 AM 41.4092 -83.1272 105° East 445 512 33,000  Level Cleveland Center
Fri 08:17:49 AM 41.3764 -82.9636 105° East 450 518 33,000  Level Cleveland Center
Fri 08:18:51 AM 41.3428 -82.7992 105° East 453 521 33,000  Level Cleveland Center
Fri 08:19:53 AM 41.3089 -82.6364 105° East 453 521 33,000  Level Cleveland Center
Fri 08:20:55 AM 41.2750 -82.4733 105° East 454 522 33,000  Level Cleveland Center
Fri 08:21:57 AM 41.2411 -82.3114 106° East 454 522 33,000 -145 Level Cleveland Center
Fri 08:22:59 AM 41.2064 -82.1475 106° East 454 522 32,700 -1,258 Descending Cleveland Center
Fri 08:24:01 AM 41.1711 -81.9819 106° East 445 512 30,400 -1,452 Descending Cleveland Center
Fri 08:25:03 AM 41.1369 -81.8256 106° East 443 510 29,700 -1,161 Descending Cleveland Center
Fri 08:26:05 AM 41.1014 -81.6525 105° East 443 510 28,000 -2,226 Descending Cleveland Center
Fri 08:27:07 AM 41.0656 -81.4939 107° East 447 514 25,100 -2,758 Descending Cleveland Center
Fri 08:28:09 AM 41.0306 -81.3364 106° East 447 514 22,300 -3,145 Descending Cleveland Center
Fri 08:29:11 AM 40.9911 -81.1553 106° East 441 507 18,600 -3,000 Descending Cleveland Center
Fri 08:30:13 AM 40.9592 -81.0139 107° East 437 503 16,100 -2,710 Descending Cleveland Center
Fri 08:31:15 AM 40.9272 -80.8656 106° East 426 490 13,000 -2,613 Descending Cleveland Center
Fri 08:32:17 AM 40.8978 -80.7361 107° East 379 436 10,700 -1,452 Descending Cleveland Center
Fri 08:33:19 AM 40.8631 -80.6117 110° East 301 346 10,000 -1,306 Descending Cleveland Center
Fri 08:34:21 AM 40.7989 -80.5722 155° Southeast 279 321 8,000 -1,597 Descending Cleveland Center
Fri 08:35:23 AM 40.7281 -80.5336 158° South 277 319 6,700 -1,403 Descending Cleveland Center
Fri 08:36:25 AM 40.6536 -80.4942 158° South 248 285 5,100 -1,210 Descending Cleveland Center
Fri 08:37:27 AM 40.6014 -80.4650 157° South 209 241 4,200 -1,016 Descending Cleveland Center
Fri 08:38:29 AM 40.5528 -80.4394 158° South 209 241 3,000 -581 Descending Cleveland Center
Fri 08:39:31 AM 40.5039 -80.3933 144° Southeast 187 215 3,000 -339 Level Cleveland Center
Fri 08:40:33 AM 40.5042 -80.3361 90° East 160 184 2,300 -720 Descending Cleveland Center
Fri 08:41:36 AM 40.5025 -80.2875 93° East 145 167 1,500 -762 Descending Cleveland Center

Login

Don't have an account? Register now (free) for customized features, flight alerts, and more!